Airfield :
LOGIN :

Register | Disclaimer

   EN    FR    IT 

 










Legend :    VFR   Marginal VFR   IFR   Intensive IFR   Very Intensive IFR
Visi :
Ceiling :
>= 8 km
>= 3000ft
5 to 8 km
1000 to 3000 ft
1500m to 5 km
500 to 1000 ft
800 to 1500m
200 to 500 ft
< 800m
< 200 ft
Symbols :   Thunderstorms  Fog  Heavy snow  Heavy precipitations  Wind > 20 kt
SIGMETs :     Misc.  Thunderstorms  Icing  Turbulence  Mountain Waves  Volcanic Ashes







- Airport Elevation : 602 ft
- IATA code : NVS
- Download approach charts


LFQG - Nevers

CURRENT METAR :
  • 240730Z AUTO 22009KT 190V260 7000 -RA FEW013/// BKN021/// BKN030/// ///TCU 11/10 Q1000

EXPIRED METARs :
  • 240700Z AUTO VRB03KT 9999 -RA FEW035/// BKN044/// OVC058/// ///CB 12/11 Q0998
  • 240630Z AUTO 20004KT 9999 RA FEW038/// BKN045/// OVC058/// ///TCU 13/10 Q0998
  • 240600Z AUTO 17004KT CAVOK 13/09 Q0998

TAF N/A
No reported NOTAMs for that airfield.
1 SIGMET reported for the Paris FIR (LFFF) :
 
Severe turbulence
LFFF SIGMET 1 VALID 240700/241100 LFPW
LFFF PARIS FIR/UIR SEV TURB FCST SE OF LINE N4715 E00430 - N4630 E00400 SFC/FL080 STNR INTSF=



MET'MAP, your aeronautical weather chart ! - Copyright ORBIFLY December 2007 - Disclaimer

ORBIFLY MET'MAP TEAM :

Programming & Development : Alexandra Zaïnal
Concept & Development : Baudouin d'Aumeries
Co-Development & Prog : Marc-Olivier Méhu
Technical & hardware support : Manuel Goepfert

Contact : metmap@orbifly.com




SOURCES & CREDITS :

   NOAA